Time;durP1;ratioP1;P1;durP2;ratioP2;P2;SDS_P1;SDS_P2;PMS_P1;PMS_P2;Temp;Humidity;BMP_temperature;BMP_pressure;BME280_temperature;BME280_humidity;BME280_pressure;Samples;Min_cycle;Max_cycle;Signal;HPM_P1;HPM_P2
2023/06/20 00:01:26;;;;;;;11.55;10.10;;;;;;;;;;5070719;28;20426;-80
2023/06/20 00:03:51;;;;;;;10.52;9.52;;;;;;;;;;5074216;28;20085;-79
2023/06/20 00:06:17;;;;;;;11.13;10.02;;;;;;;;;;5073749;28;20041;-80
2023/06/20 00:08:42;;;;;;;11.02;9.93;;;;;;;;;;5073642;28;20024;-80
2023/06/20 00:11:07;;;;;;;11.27;10.18;;;;;;;;;;5073446;28;20042;-80
2023/06/20 00:13:34;;;;;;;10.27;9.27;;;;;;;;;;5073731;28;20032;-79
2023/06/20 00:16:01;;;;;;;12.65;11.35;;;;;;;;;;5073850;28;20081;-83
2023/06/20 00:18:26;;;;;;;11.52;10.30;;;;;;;;;;5074222;28;20527;-81
2023/06/20 00:20:54;;;;;;;11.35;10.25;;;;;;;;;;5072795;28;20634;-80
2023/06/20 00:23:20;;;;;;;11.50;10.27;;;;;;;;;;5072593;28;20097;-79
2023/06/20 00:25:46;;;;;;;11.27;10.13;;;;;;;;;;5074139;28;20458;-80
2023/06/20 00:28:14;;;;;;;12.50;9.35;;;;;;;;;;5072718;28;20032;-79
2023/06/20 00:30:39;;;;;;;10.50;9.50;;;;;;;;;;5070918;28;20418;-78
2023/06/20 00:33:04;;;;;;;18.30;10.00;;;;;;;;;;5074096;28;20064;-83
2023/06/20 00:35:29;;;;;;;11.90;10.40;;;;;;;;;;5072142;28;20105;-80
2023/06/20 00:37:55;;;;;;;10.75;9.75;;;;;;;;;;5073404;28;20129;-78
2023/06/20 00:40:21;;;;;;;10.75;9.70;;;;;;;;;;5076814;28;20028;-82
2023/06/20 00:42:47;;;;;;;13.27;9.35;;;;;;;;;;5085676;28;20046;-80
2023/06/20 00:45:35;;;;;;;11.13;10.02;;;;;;;;;;5082700;28;20367;-82
2023/06/20 00:48:02;;;;;;;11.07;10.07;;;;;;;;;;5077667;28;20039;-78
2023/06/20 00:50:28;;;;;;;11.27;9.88;;;;;;;;;;5086270;28;20051;-78
2023/06/20 00:53:05;;;;;;;11.55;10.13;;;;;;;;;;5085244;28;20070;-78
2023/06/20 00:55:31;;;;;;;9.95;8.93;;;;;;;;;;5083935;28;20103;-81
2023/06/20 00:57:57;;;;;;;11.73;10.52;;;;;;;;;;5078956;28;20052;-81
2023/06/20 01:00:23;;;;;;;11.25;10.02;;;;;;;;;;5077874;28;20099;-79
2023/06/20 01:02:49;;;;;;;10.55;9.55;;;;;;;;;;5079561;28;20530;-78
2023/06/20 01:05:14;;;;;;;10.77;9.75;;;;;;;;;;5084468;28;20816;-79
2023/06/20 01:07:52;;;;;;;10.82;9.68;;;;;;;;;;5082712;28;20121;-79
2023/06/20 01:10:40;;;;;;;12.15;9.77;;;;;;;;;;5083512;28;20016;-81
2023/06/20 01:13:06;;;;;;;11.23;10.13;;;;;;;;;;5077018;28;20044;-82
2023/06/20 01:15:37;;;;;;;11.77;9.82;;;;;;;;;;5077554;28;20035;-83
2023/06/20 01:18:02;;;;;;;10.82;9.68;;;;;;;;;;5076833;28;20024;-81
2023/06/20 01:20:31;;;;;;;12.00;10.23;;;;;;;;;;5083347;28;20035;-81
2023/06/20 01:23:01;;;;;;;11.75;10.63;;;;;;;;;;5084295;28;20486;-80
2023/06/20 01:25:26;;;;;;;9.68;8.77;;;;;;;;;;5074065;28;20020;-79
2023/06/20 01:28:03;;;;;;;10.95;9.90;;;;;;;;;;5079482;28;20025;-80
2023/06/20 01:30:38;;;;;;;13.63;10.35;;;;;;;;;;5077859;28;20332;-79
2023/06/20 01:33:05;;;;;;;12.27;10.35;;;;;;;;;;5073578;28;20039;-79
2023/06/20 01:35:32;;;;;;;11.20;9.73;;;;;;;;;;5083218;28;20379;-80
2023/06/20 01:37:59;;;;;;;12.18;10.00;;;;;;;;;;5083173;28;20024;-79
2023/06/20 01:40:25;;;;;;;11.98;10.88;;;;;;;;;;5072244;28;20028;-79
2023/06/20 01:42:52;;;;;;;11.40;10.30;;;;;;;;;;5078222;28;20043;-78
2023/06/20 01:45:19;;;;;;;14.00;9.93;;;;;;;;;;5079205;28;20031;-79
2023/06/20 01:47:46;;;;;;;11.18;9.98;;;;;;;;;;5074178;28;20032;-80
2023/06/20 01:50:13;;;;;;;11.93;10.75;;;;;;;;;;5083134;28;20490;-78
2023/06/20 01:52:39;;;;;;;10.15;9.25;;;;;;;;;;5081372;28;20647;-83
2023/06/20 01:55:05;;;;;;;11.43;10.32;;;;;;;;;;5082427;28;20035;-78
2023/06/20 01:57:38;;;;;;;12.38;10.00;;;;;;;;;;5080720;28;20032;-80
2023/06/20 02:00:13;;;;;;;11.77;9.52;;;;;;;;;;5080983;28;20024;-79
2023/06/20 02:02:39;;;;;;;11.00;10.00;;;;;;;;;;5074775;28;20084;-78
2023/06/20 02:05:05;;;;;;;11.32;10.13;;;;;;;;;;5080892;28;20024;-80
2023/06/20 02:07:31;;;;;;;10.88;9.77;;;;;;;;;;5083524;28;20072;-79
2023/06/20 02:09:56;;;;;;;15.68;10.50;;;;;;;;;;5072747;28;20111;-80
2023/06/20 02:12:22;;;;;;;11.43;9.98;;;;;;;;;;5074160;28;20354;-79
2023/06/20 02:14:48;;;;;;;10.35;9.32;;;;;;;;;;5076068;28;20070;-79
2023/06/20 02:17:15;;;;;;;12.27;9.75;;;;;;;;;;5069465;28;20028;-78
2023/06/20 02:19:41;;;;;;;14.40;9.98;;;;;;;;;;5081484;28;20024;-82
2023/06/20 02:22:08;;;;;;;10.68;9.52;;;;;;;;;;5081044;28;20089;-84
2023/06/20 02:24:34;;;;;;;10.65;9.27;;;;;;;;;;5079925;28;20037;-80
2023/06/20 02:27:01;;;;;;;14.38;9.85;;;;;;;;;;5080922;28;20096;-79
2023/06/20 02:29:29;;;;;;;11.15;9.65;;;;;;;;;;5079608;28;20128;-83
2023/06/20 02:31:57;;;;;;;10.98;9.35;;;;;;;;;;5070653;28;20020;-83
2023/06/20 02:34:23;;;;;;;10.90;9.80;;;;;;;;;;5079496;28;20036;-82
2023/06/20 02:36:50;;;;;;;11.38;10.13;;;;;;;;;;5081593;28;20027;-79
2023/06/20 02:39:15;;;;;;;10.00;8.82;;;;;;;;;;5081062;28;20039;-80
2023/06/20 02:41:41;;;;;;;12.23;9.80;;;;;;;;;;5082149;28;20035;-79
2023/06/20 02:44:06;;;;;;;10.80;9.77;;;;;;;;;;5075841;28;20039;-78
2023/06/20 02:46:47;;;;;;;12.63;9.80;;;;;;;;;;5066154;28;20046;-77
2023/06/20 02:49:17;;;;;;;11.65;10.15;;;;;;;;;;5077425;28;20466;-78
2023/06/20 02:51:48;;;;;;;12.75;10.38;;;;;;;;;;5070707;28;20028;-77
2023/06/20 02:54:13;;;;;;;15.25;9.93;;;;;;;;;;5081115;28;20038;-78
2023/06/20 02:56:41;;;;;;;15.48;10.68;;;;;;;;;;5081472;28;20031;-79
2023/06/20 02:59:07;;;;;;;12.52;9.95;;;;;;;;;;5079572;28;20128;-77
2023/06/20 03:01:33;;;;;;;11.10;10.00;;;;;;;;;;5072878;28;20035;-80
2023/06/20 03:04:02;;;;;;;11.38;10.25;;;;;;;;;;5077834;28;20028;-79
2023/06/20 03:06:28;;;;;;;11.10;10.00;;;;;;;;;;5079642;28;20073;-82
2023/06/20 03:08:54;;;;;;;11.93;10.60;;;;;;;;;;5079223;28;20120;-79
2023/06/20 03:11:21;;;;;;;11.38;10.13;;;;;;;;;;5066538;28;20016;-77
2023/06/20 03:13:46;;;;;;;11.10;10.02;;;;;;;;;;5059019;28;20031;-82
2023/06/20 03:16:12;;;;;;;11.52;10.43;;;;;;;;;;5063296;28;20028;-82
2023/06/20 03:18:38;;;;;;;11.43;10.32;;;;;;;;;;5066498;28;20020;-78
2023/06/20 03:21:04;;;;;;;13.18;10.45;;;;;;;;;;5074804;28;20115;-80
2023/06/20 03:23:29;;;;;;;13.20;11.40;;;;;;;;;;5081702;28;20028;-79
2023/06/20 03:25:55;;;;;;;13.27;10.73;;;;;;;;;;5079881;28;20035;-79
2023/06/20 03:28:22;;;;;;;15.20;11.02;;;;;;;;;;5073543;28;20024;-79
2023/06/20 03:30:47;;;;;;;12.02;10.68;;;;;;;;;;5059441;28;20028;-82
2023/06/20 03:33:12;;;;;;;11.30;10.20;;;;;;;;;;5059078;28;20032;-80
2023/06/20 03:35:39;;;;;;;12.68;11.40;;;;;;;;;;5061242;28;20108;-79
2023/06/20 03:38:04;;;;;;;11.65;10.63;;;;;;;;;;5061000;28;20111;-79
2023/06/20 03:40:29;;;;;;;12.57;10.45;;;;;;;;;;5058242;28;20111;-78
2023/06/20 03:42:55;;;;;;;12.18;10.57;;;;;;;;;;5061826;28;20067;-79
2023/06/20 03:45:20;;;;;;;12.13;10.18;;;;;;;;;;5062105;28;20860;-78
2023/06/20 03:47:45;;;;;;;12.93;10.98;;;;;;;;;;5061213;28;20028;-79
2023/06/20 03:50:11;;;;;;;13.20;11.07;;;;;;;;;;5058905;28;20427;-79
2023/06/20 03:52:36;;;;;;;12.68;11.00;;;;;;;;;;5059739;28;20378;-81
2023/06/20 03:55:02;;;;;;;17.77;10.63;;;;;;;;;;5059056;28;20035;-79
2023/06/20 03:57:27;;;;;;;13.77;10.85;;;;;;;;;;5057487;28;20875;-80
2023/06/20 03:59:52;;;;;;;12.85;11.75;;;;;;;;;;5060568;28;20097;-80
2023/06/20 04:02:17;;;;;;;11.77;10.68;;;;;;;;;;5060286;28;20020;-78
2023/06/20 04:04:49;;;;;;;12.90;11.70;;;;;;;;;;5063040;28;20389;-77
2023/06/20 04:07:18;;;;;;;12.88;11.57;;;;;;;;;;5072183;28;20048;-77
2023/06/20 04:09:44;;;;;;;13.00;11.57;;;;;;;;;;5074588;28;20020;-80
2023/06/20 04:12:09;;;;;;;11.93;10.73;;;;;;;;;;5060649;28;20034;-78
2023/06/20 04:14:34;;;;;;;12.90;11.65;;;;;;;;;;5072667;28;20025;-78
2023/06/20 04:17:00;;;;;;;12.20;11.05;;;;;;;;;;5066567;28;20035;-80
2023/06/20 04:19:25;;;;;;;12.15;10.95;;;;;;;;;;5082001;28;20050;-83
2023/06/20 04:21:50;;;;;;;15.43;12.23;;;;;;;;;;5078501;28;20032;-79
2023/06/20 04:24:16;;;;;;;12.05;10.95;;;;;;;;;;5080548;28;20028;-79
2023/06/20 04:26:41;;;;;;;13.18;11.85;;;;;;;;;;5074758;28;20028;-81
2023/06/20 04:29:06;;;;;;;16.30;13.95;;;;;;;;;;5061584;28;20037;-81
2023/06/20 04:31:32;;;;;;;13.80;12.27;;;;;;;;;;5063085;28;20024;-79
2023/06/20 04:33:57;;;;;;;12.15;10.52;;;;;;;;;;5074374;28;20086;-79
2023/06/20 04:36:23;;;;;;;13.90;11.77;;;;;;;;;;5077657;28;20020;-79
2023/06/20 04:38:48;;;;;;;11.93;10.73;;;;;;;;;;5077635;28;20301;-78
2023/06/20 04:41:13;;;;;;;12.57;11.38;;;;;;;;;;5078029;28;20028;-79
2023/06/20 04:43:39;;;;;;;12.35;11.25;;;;;;;;;;5070811;28;20117;-80
2023/06/20 04:46:04;;;;;;;12.85;11.55;;;;;;;;;;5077913;28;20362;-82
2023/06/20 04:48:30;;;;;;;14.70;12.25;;;;;;;;;;5082080;28;20055;-80
2023/06/20 04:50:56;;;;;;;16.45;12.23;;;;;;;;;;5077961;28;20117;-80
2023/06/20 04:53:22;;;;;;;11.30;10.23;;;;;;;;;;5064816;28;20482;-81
2023/06/20 04:55:48;;;;;;;15.60;12.32;;;;;;;;;;5073773;28;20035;-80
2023/06/20 04:58:14;;;;;;;15.80;13.23;;;;;;;;;;5067380;28;20472;-81
2023/06/20 05:00:39;;;;;;;13.48;12.07;;;;;;;;;;5071653;28;20027;-79
2023/06/20 05:03:05;;;;;;;12.38;10.95;;;;;;;;;;5084464;28;20130;-79
2023/06/20 05:05:31;;;;;;;12.50;11.25;;;;;;;;;;5079706;28;20125;-82
2023/06/20 05:07:56;;;;;;;21.60;16.70;;;;;;;;;;5084026;28;20024;-78
2023/06/20 05:10:22;;;;;;;22.80;17.52;;;;;;;;;;5084586;28;20023;-78
2023/06/20 05:12:47;;;;;;;19.58;16.38;;;;;;;;;;5084627;28;20099;-79
2023/06/20 05:15:13;;;;;;;23.90;19.30;;;;;;;;;;5083925;28;20104;-79
2023/06/20 05:17:38;;;;;;;20.27;16.55;;;;;;;;;;5081388;28;20068;-81
2023/06/20 05:20:06;;;;;;;16.40;14.45;;;;;;;;;;5083424;28;20069;-79
2023/06/20 05:22:32;;;;;;;14.65;13.15;;;;;;;;;;5083291;28;20024;-77
2023/06/20 05:24:57;;;;;;;12.63;11.43;;;;;;;;;;5082029;28;20038;-79
2023/06/20 05:27:22;;;;;;;12.60;11.35;;;;;;;;;;5082128;28;20028;-77
2023/06/20 05:29:47;;;;;;;11.63;10.60;;;;;;;;;;5084633;28;20024;-76
2023/06/20 05:32:13;;;;;;;12.82;11.60;;;;;;;;;;5081342;28;20032;-79
2023/06/20 05:34:38;;;;;;;12.57;11.40;;;;;;;;;;5081092;28;20431;-77
2023/06/20 05:37:03;;;;;;;11.05;10.02;;;;;;;;;;5079746;28;20027;-77
2023/06/20 05:39:29;;;;;;;13.10;11.90;;;;;;;;;;5083840;28;20034;-79
2023/06/20 05:41:56;;;;;;;12.80;11.50;;;;;;;;;;5083437;28;20362;-79
2023/06/20 05:44:21;;;;;;;12.55;11.23;;;;;;;;;;5083084;28;20035;-76
2023/06/20 05:46:47;;;;;;;11.68;10.57;;;;;;;;;;5080911;28;20024;-77
2023/06/20 05:49:14;;;;;;;17.20;13.25;;;;;;;;;;5078759;28;20047;-76
2023/06/20 05:51:40;;;;;;;16.05;14.35;;;;;;;;;;5082129;28;20454;-77
2023/06/20 05:54:07;;;;;;;13.52;12.10;;;;;;;;;;5082520;28;20044;-77
2023/06/20 05:56:32;;;;;;;13.85;12.45;;;;;;;;;;5081842;28;20025;-77
2023/06/20 05:58:58;;;;;;;13.95;12.57;;;;;;;;;;5082974;28;20039;-77
2023/06/20 06:01:23;;;;;;;14.20;12.70;;;;;;;;;;5081155;28;20039;-79
2023/06/20 06:03:48;;;;;;;12.13;10.82;;;;;;;;;;5081735;28;20039;-76
2023/06/20 06:06:14;;;;;;;12.07;10.77;;;;;;;;;;5080010;28;20032;-76
2023/06/20 06:08:40;;;;;;;13.32;11.10;;;;;;;;;;5082544;28;20020;-77
2023/06/20 06:11:07;;;;;;;15.75;14.15;;;;;;;;;;5082762;28;20032;-76
2023/06/20 06:13:32;;;;;;;12.20;10.98;;;;;;;;;;5081955;28;20067;-75
2023/06/20 06:15:58;;;;;;;11.57;10.48;;;;;;;;;;5082700;28;20063;-79
2023/06/20 06:18:23;;;;;;;10.50;9.57;;;;;;;;;;5082079;28;20384;-76
2023/06/20 06:20:48;;;;;;;10.45;9.45;;;;;;;;;;5080977;28;20415;-78
2023/06/20 06:23:14;;;;;;;9.90;9.00;;;;;;;;;;5079817;28;20042;-75
2023/06/20 06:25:39;;;;;;;10.40;9.50;;;;;;;;;;5081733;28;20057;-78
2023/06/20 06:28:04;;;;;;;10.27;9.27;;;;;;;;;;5082067;28;20028;-77
2023/06/20 06:30:32;;;;;;;10.57;9.60;;;;;;;;;;5081812;28;20024;-76
2023/06/20 06:32:58;;;;;;;10.35;9.38;;;;;;;;;;5080012;28;20024;-79
2023/06/20 06:35:24;;;;;;;11.07;9.82;;;;;;;;;;5079561;28;20039;-77
2023/06/20 06:37:49;;;;;;;11.30;10.18;;;;;;;;;;5080638;28;20474;-76
2023/06/20 06:40:15;;;;;;;11.75;9.02;;;;;;;;;;5079455;28;20028;-78
2023/06/20 06:42:40;;;;;;;10.13;9.15;;;;;;;;;;5080786;28;20055;-76
2023/06/20 06:45:06;;;;;;;9.52;8.52;;;;;;;;;;5079013;28;20103;-76
2023/06/20 06:47:31;;;;;;;9.65;8.75;;;;;;;;;;5080583;28;20505;-75
2023/06/20 06:49:57;;;;;;;9.52;8.40;;;;;;;;;;5080085;28;20378;-77
2023/06/20 06:52:22;;;;;;;9.23;8.32;;;;;;;;;;5080159;28;20024;-79
2023/06/20 06:54:47;;;;;;;9.30;8.45;;;;;;;;;;5079849;28;20087;-76
2023/06/20 06:57:13;;;;;;;10.25;9.25;;;;;;;;;;5078387;28;20020;-78
2023/06/20 06:59:38;;;;;;;9.18;8.30;;;;;;;;;;5080723;28;20565;-77
2023/06/20 07:02:05;;;;;;;8.93;8.13;;;;;;;;;;5080055;28;20707;-76
2023/06/20 07:04:30;;;;;;;9.30;8.40;;;;;;;;;;5080197;28;20360;-77
2023/06/20 07:06:55;;;;;;;9.93;8.18;;;;;;;;;;5079381;28;20089;-75
2023/06/20 07:09:21;;;;;;;9.00;8.30;;;;;;;;;;5079707;28;20593;-77
2023/06/20 07:11:46;;;;;;;9.80;9.00;;;;;;;;;;5080447;28;20450;-77
2023/06/20 07:14:12;;;;;;;9.20;8.30;;;;;;;;;;5077905;28;20036;-76
2023/06/20 07:16:37;;;;;;;9.98;8.95;;;;;;;;;;5079460;28;20780;-78
2023/06/20 07:19:02;;;;;;;10.82;9.80;;;;;;;;;;5080245;28;20102;-76
2023/06/20 07:21:28;;;;;;;8.95;8.13;;;;;;;;;;5080170;28;20086;-76
2023/06/20 07:23:53;;;;;;;9.43;8.57;;;;;;;;;;5080473;28;20024;-76
2023/06/20 07:26:18;;;;;;;8.98;8.18;;;;;;;;;;5079968;28;20077;-76
2023/06/20 07:28:44;;;;;;;10.15;8.70;;;;;;;;;;5077851;28;20030;-77
2023/06/20 07:31:15;;;;;;;8.48;7.68;;;;;;;;;;5081183;28;20028;-76
2023/06/20 07:33:40;;;;;;;9.93;8.35;;;;;;;;;;5079828;28;20043;-76
2023/06/20 07:36:07;;;;;;;9.40;8.25;;;;;;;;;;5080855;28;20343;-78
2023/06/20 07:38:32;;;;;;;8.98;8.18;;;;;;;;;;5079830;28;20024;-77
2023/06/20 07:40:59;;;;;;;10.77;7.82;;;;;;;;;;5081784;28;20530;-75
2023/06/20 07:43:24;;;;;;;9.50;7.80;;;;;;;;;;5081256;28;20048;-74
2023/06/20 07:45:50;;;;;;;8.30;7.50;;;;;;;;;;5080732;28;20070;-76
2023/06/20 07:48:15;;;;;;;8.70;7.90;;;;;;;;;;5078145;28;20020;-77
2023/06/20 07:50:41;;;;;;;8.27;7.57;;;;;;;;;;5072014;28;20024;-77
2023/06/20 07:53:06;;;;;;;8.45;7.60;;;;;;;;;;5080517;28;20094;-77
2023/06/20 07:55:31;;;;;;;8.90;7.35;;;;;;;;;;5079239;28;20060;-78
2023/06/20 07:57:57;;;;;;;8.10;7.30;;;;;;;;;;5081889;28;20059;-78
2023/06/20 08:00:24;;;;;;;8.35;7.57;;;;;;;;;;5080212;28;20067;-77
2023/06/20 08:02:49;;;;;;;9.15;7.70;;;;;;;;;;5067376;28;20023;-76
2023/06/20 08:05:15;;;;;;;8.68;7.85;;;;;;;;;;5066845;28;20028;-76
2023/06/20 08:07:40;;;;;;;8.27;7.47;;;;;;;;;;5065938;28;20115;-77
2023/06/20 08:10:07;;;;;;;8.30;7.63;;;;;;;;;;5067012;28;20089;-75
2023/06/20 08:12:33;;;;;;;8.50;7.70;;;;;;;;;;5065097;28;20055;-77
2023/06/20 08:14:58;;;;;;;7.63;7.03;;;;;;;;;;5067212;28;20834;-76
2023/06/20 08:17:23;;;;;;;7.72;7.07;;;;;;;;;;5069033;28;20028;-76
2023/06/20 08:19:49;;;;;;;8.43;7.63;;;;;;;;;;5070864;28;20091;-76
2023/06/20 08:22:14;;;;;;;8.15;7.32;;;;;;;;;;5071047;28;20032;-78
2023/06/20 08:24:39;;;;;;;7.35;6.75;;;;;;;;;;5071296;28;20028;-76
2023/06/20 08:27:05;;;;;;;11.15;7.68;;;;;;;;;;5070726;28;20016;-79
2023/06/20 08:29:30;;;;;;;8.00;7.13;;;;;;;;;;5067416;28;20024;-78
2023/06/20 08:31:56;;;;;;;7.45;6.85;;;;;;;;;;5070732;28;20032;-77
2023/06/20 08:34:21;;;;;;;7.82;7.13;;;;;;;;;;5071635;28;20420;-78
2023/06/20 08:36:46;;;;;;;9.70;7.80;;;;;;;;;;5067454;28;20028;-78
2023/06/20 08:39:12;;;;;;;7.82;7.15;;;;;;;;;;5075641;28;20028;-79
2023/06/20 08:41:37;;;;;;;8.20;7.15;;;;;;;;;;5074345;28;20016;-77
2023/06/20 08:44:03;;;;;;;7.40;6.72;;;;;;;;;;5070685;28;20031;-77
2023/06/20 08:46:28;;;;;;;7.75;6.57;;;;;;;;;;5070615;28;20024;-77
2023/06/20 08:48:54;;;;;;;9.13;6.40;;;;;;;;;;5068777;28;20115;-79
2023/06/20 08:51:22;;;;;;;7.25;6.68;;;;;;;;;;5071483;28;20059;-78
2023/06/20 08:53:48;;;;;;;7.10;6.50;;;;;;;;;;5070337;28;20036;-77
2023/06/20 08:56:15;;;;;;;7.55;6.93;;;;;;;;;;5070040;28;20028;-77
2023/06/20 08:58:40;;;;;;;8.27;6.90;;;;;;;;;;5070280;28;20044;-78
2023/06/20 09:01:07;;;;;;;7.47;6.38;;;;;;;;;;5070475;28;20112;-77
2023/06/20 09:03:33;;;;;;;8.63;6.72;;;;;;;;;;5069854;28;20051;-77
2023/06/20 09:05:58;;;;;;;11.23;7.03;;;;;;;;;;5071509;28;20416;-77
2023/06/20 09:08:23;;;;;;;10.82;7.18;;;;;;;;;;5082662;28;20114;-77
2023/06/20 09:11:07;;;;;;;9.38;6.75;;;;;;;;;;5075680;28;20099;-77
2023/06/20 09:13:33;;;;;;;7.85;6.38;;;;;;;;;;5069318;28;20371;-80
2023/06/20 09:16:08;;;;;;;7.90;7.10;;;;;;;;;;5068523;28;20450;-79
2023/06/20 09:18:35;;;;;;;8.88;7.28;;;;;;;;;;5069781;28;20024;-79
2023/06/20 09:21:03;;;;;;;7.07;6.47;;;;;;;;;;5068781;28;20024;-78
2023/06/20 09:23:29;;;;;;;8.38;6.97;;;;;;;;;;5068820;28;20467;-76
2023/06/20 09:26:11;;;;;;;6.30;5.75;;;;;;;;;;5069959;28;20035;-77
2023/06/20 09:28:37;;;;;;;8.70;6.55;;;;;;;;;;5069918;28;20027;-77
2023/06/20 09:31:02;;;;;;;7.72;6.78;;;;;;;;;;5068547;28;20032;-77
2023/06/20 09:33:30;;;;;;;6.72;6.13;;;;;;;;;;5069927;28;20028;-78
2023/06/20 09:36:09;;;;;;;6.60;6.00;;;;;;;;;;5080414;28;20036;-81
2023/06/20 09:38:34;;;;;;;7.40;6.80;;;;;;;;;;5083382;28;20035;-79
2023/06/20 09:41:00;;;;;;;7.00;6.30;;;;;;;;;;5074722;28;20028;-79
2023/06/20 09:43:25;;;;;;;10.07;6.63;;;;;;;;;;5069536;28;20104;-80
2023/06/20 09:45:50;;;;;;;8.18;6.40;;;;;;;;;;5068971;28;20103;-79
2023/06/20 09:48:16;;;;;;;7.05;6.47;;;;;;;;;;5074362;28;20786;-79
2023/06/20 09:50:43;;;;;;;6.95;6.35;;;;;;;;;;5080364;28;20028;-78
2023/06/20 09:53:09;;;;;;;7.63;6.82;;;;;;;;;;5081979;28;20036;-78
2023/06/20 09:55:35;;;;;;;7.40;6.70;;;;;;;;;;5079494;28;20028;-78
2023/06/20 09:58:02;;;;;;;7.25;6.55;;;;;;;;;;5083758;28;20277;-79
2023/06/20 10:00:29;;;;;;;6.85;6.25;;;;;;;;;;5082514;28;20024;-80
2023/06/20 10:02:58;;;;;;;6.65;6.13;;;;;;;;;;5083663;28;20044;-79
2023/06/20 10:05:24;;;;;;;6.68;6.18;;;;;;;;;;5081901;28;20035;-79
2023/06/20 10:07:51;;;;;;;9.35;6.57;;;;;;;;;;5080680;28;20048;-79
2023/06/20 10:10:17;;;;;;;6.90;6.07;;;;;;;;;;5083165;28;20028;-80
2023/06/20 10:12:45;;;;;;;7.28;6.57;;;;;;;;;;5082755;28;20036;-81
2023/06/20 10:15:13;;;;;;;6.78;6.00;;;;;;;;;;5080816;28;20027;-81
2023/06/20 10:17:43;;;;;;;6.20;5.70;;;;;;;;;;5081482;28;20351;-81
2023/06/20 10:20:24;;;;;;;7.15;6.55;;;;;;;;;;5081289;28;20027;-81
2023/06/20 10:22:50;;;;;;;7.68;6.00;;;;;;;;;;5080243;28;20024;-80
2023/06/20 10:25:16;;;;;;;6.40;5.88;;;;;;;;;;5081292;28;20035;-80
2023/06/20 10:27:42;;;;;;;6.40;5.90;;;;;;;;;;5079525;28;20039;-80
2023/06/20 10:30:10;;;;;;;8.00;5.85;;;;;;;;;;5082040;28;20043;-79
2023/06/20 10:32:37;;;;;;;7.05;6.40;;;;;;;;;;5082114;28;20027;-80
2023/06/20 10:35:09;;;;;;;8.35;5.82;;;;;;;;;;5083289;28;20023;-80
2023/06/20 10:37:38;;;;;;;9.10;6.07;;;;;;;;;;5079151;28;20435;-80
2023/06/20 10:40:09;;;;;;;6.40;5.75;;;;;;;;;;5082083;28;20015;-80
2023/06/20 10:42:34;;;;;;;7.10;6.45;;;;;;;;;;5081130;28;20060;-80
2023/06/20 10:45:18;;;;;;;8.30;6.03;;;;;;;;;;5082249;28;20398;-81
2023/06/20 10:47:44;;;;;;;6.40;5.80;;;;;;;;;;5081212;28;20113;-80
2023/06/20 10:50:10;;;;;;;6.40;5.80;;;;;;;;;;5082615;28;20024;-79
2023/06/20 10:52:37;;;;;;;6.32;5.80;;;;;;;;;;5080509;28;20032;-80
2023/06/20 10:55:02;;;;;;;6.80;6.20;;;;;;;;;;5080905;28;20028;-79
2023/06/20 10:57:28;;;;;;;6.70;6.05;;;;;;;;;;5078571;28;20084;-79
2023/06/20 10:59:53;;;;;;;11.13;6.50;;;;;;;;;;5081937;28;20108;-79
2023/06/20 11:02:19;;;;;;;5.72;5.07;;;;;;;;;;5080223;28;20039;-81
2023/06/20 11:04:47;;;;;;;6.43;5.82;;;;;;;;;;5081300;28;20457;-81
2023/06/20 11:07:12;;;;;;;6.60;6.10;;;;;;;;;;5080348;28;20103;-78
2023/06/20 11:09:38;;;;;;;5.78;5.32;;;;;;;;;;5078830;28;20200;-79
2023/06/20 11:12:07;;;;;;;6.47;5.78;;;;;;;;;;5082145;28;20112;-79
2023/06/20 11:14:32;;;;;;;6.60;6.00;;;;;;;;;;5082569;28;20114;-79
2023/06/20 11:16:58;;;;;;;6.43;5.82;;;;;;;;;;5080503;28;20173;-78
2023/06/20 11:19:26;;;;;;;8.30;5.85;;;;;;;;;;5079042;28;20112;-78
2023/06/20 11:21:51;;;;;;;6.50;6.00;;;;;;;;;;5079622;28;20103;-79
2023/06/20 11:24:19;;;;;;;9.23;6.38;;;;;;;;;;5082151;28;20169;-80
2023/06/20 11:26:44;;;;;;;6.43;5.93;;;;;;;;;;5079320;28;20039;-78
2023/06/20 11:29:10;;;;;;;6.70;6.20;;;;;;;;;;5082440;28;20032;-79
2023/06/20 11:31:35;;;;;;;6.95;6.38;;;;;;;;;;5081535;28;20024;-80
2023/06/20 11:34:03;;;;;;;7.10;6.30;;;;;;;;;;5080536;28;20036;-81
2023/06/20 11:36:31;;;;;;;7.13;6.38;;;;;;;;;;5080367;28;20030;-80
2023/06/20 11:38:58;;;;;;;7.13;6.18;;;;;;;;;;5081344;28;20165;-80
2023/06/20 11:41:30;;;;;;;7.20;6.40;;;;;;;;;;5080341;28;20119;-82
2023/06/20 11:43:55;;;;;;;6.90;6.30;;;;;;;;;;5080201;28;20165;-80
2023/06/20 11:46:20;;;;;;;7.95;6.53;;;;;;;;;;5079958;28;20123;-78
2023/06/20 11:48:49;;;;;;;7.80;6.28;;;;;;;;;;5080590;28;20194;-82
2023/06/20 11:51:15;;;;;;;7.20;6.60;;;;;;;;;;5080201;28;20035;-79
2023/06/20 11:53:41;;;;;;;6.82;6.30;;;;;;;;;;5081735;28;20028;-81
2023/06/20 11:56:07;;;;;;;6.82;6.13;;;;;;;;;;5079929;28;20024;-79
2023/06/20 11:58:36;;;;;;;9.32;7.47;;;;;;;;;;5079171;28;20044;-80
2023/06/20 12:01:04;;;;;;;7.30;6.60;;;;;;;;;;5081859;28;20039;-79
2023/06/20 12:03:30;;;;;;;6.72;6.22;;;;;;;;;;5079968;28;20031;-78
2023/06/20 12:05:56;;;;;;;7.70;7.00;;;;;;;;;;5081382;28;20467;-80
2023/06/20 12:08:22;;;;;;;9.38;6.55;;;;;;;;;;5080831;28;20031;-78
2023/06/20 12:10:57;;;;;;;7.55;6.85;;;;;;;;;;5081903;28;20316;-80
2023/06/20 12:13:22;;;;;;;7.82;7.22;;;;;;;;;;5079966;28;20028;-80
2023/06/20 12:15:48;;;;;;;6.90;6.20;;;;;;;;;;5079632;28;20319;-81
2023/06/20 12:18:13;;;;;;;8.48;6.78;;;;;;;;;;5079438;28;20496;-79
2023/06/20 12:20:38;;;;;;;6.90;6.30;;;;;;;;;;5079634;28;20412;-82
2023/06/20 12:23:04;;;;;;;7.28;6.57;;;;;;;;;;5075093;28;20391;-80
2023/06/20 12:25:29;;;;;;;7.10;6.50;;;;;;;;;;5081112;28;20032;-79
2023/06/20 12:27:54;;;;;;;6.75;6.25;;;;;;;;;;5079597;28;20359;-77
2023/06/20 12:30:20;;;;;;;7.07;6.47;;;;;;;;;;5078704;28;20447;-80
2023/06/20 12:32:45;;;;;;;7.25;6.55;;;;;;;;;;5078344;28;20109;-80
2023/06/20 12:35:11;;;;;;;8.93;6.55;;;;;;;;;;5080746;28;20901;-80
2023/06/20 12:37:38;;;;;;;7.13;6.43;;;;;;;;;;5081029;28;20048;-79
2023/06/20 12:40:04;;;;;;;7.70;6.88;;;;;;;;;;5078359;28;20028;-81
2023/06/20 12:42:29;;;;;;;7.90;7.20;;;;;;;;;;5068041;28;20039;-81
2023/06/20 12:44:55;;;;;;;9.45;7.10;;;;;;;;;;5077429;28;20058;-80
2023/06/20 12:47:20;;;;;;;7.20;6.60;;;;;;;;;;5066220;28;20438;-79
2023/06/20 12:49:46;;;;;;;7.05;6.45;;;;;;;;;;5064865;28;20024;-78
2023/06/20 12:52:12;;;;;;;7.35;6.65;;;;;;;;;;5076023;28;20031;-79
2023/06/20 12:54:38;;;;;;;7.10;6.45;;;;;;;;;;5071057;28;20305;-79
2023/06/20 12:57:03;;;;;;;8.00;7.18;;;;;;;;;;5064542;28;20453;-78
2023/06/20 12:59:29;;;;;;;15.63;9.63;;;;;;;;;;5064647;28;20123;-76
2023/06/20 13:01:55;;;;;;;9.10;7.18;;;;;;;;;;5067381;28;20161;-76
2023/06/20 13:04:20;;;;;;;15.75;9.98;;;;;;;;;;5070596;28;20077;-80
2023/06/20 13:06:45;;;;;;;7.38;6.68;;;;;;;;;;5073463;28;20031;-79
2023/06/20 13:09:11;;;;;;;9.63;6.47;;;;;;;;;;5084285;28;20057;-79
2023/06/20 13:11:36;;;;;;;7.72;6.95;;;;;;;;;;5073456;28;20070;-80
2023/06/20 13:14:03;;;;;;;7.13;6.53;;;;;;;;;;5079535;28;20042;-79
2023/06/20 13:16:28;;;;;;;7.65;6.95;;;;;;;;;;5066227;28;20031;-81
2023/06/20 13:18:58;;;;;;;9.13;6.97;;;;;;;;;;5076460;28;20028;-80
2023/06/20 13:21:23;;;;;;;7.18;6.57;;;;;;;;;;5082025;28;20031;-80
2023/06/20 13:23:50;;;;;;;9.70;6.80;;;;;;;;;;5070799;28;20440;-81
2023/06/20 13:26:15;;;;;;;7.90;7.10;;;;;;;;;;5081186;28;20856;-79
2023/06/20 13:28:41;;;;;;;7.82;7.03;;;;;;;;;;5072301;28;20059;-81
2023/06/20 13:31:06;;;;;;;8.63;6.25;;;;;;;;;;5082901;28;20036;-81
2023/06/20 13:33:31;;;;;;;7.25;6.65;;;;;;;;;;5082743;28;20043;-81
2023/06/20 13:35:57;;;;;;;7.20;6.50;;;;;;;;;;5081140;28;20036;-81
2023/06/20 13:38:22;;;;;;;8.63;5.90;;;;;;;;;;5082680;28;20027;-78
2023/06/20 13:40:47;;;;;;;7.18;6.60;;;;;;;;;;5084410;28;20115;-80
2023/06/20 13:43:13;;;;;;;10.07;6.85;;;;;;;;;;5076169;28;20058;-80
2023/06/20 13:45:38;;;;;;;6.80;6.30;;;;;;;;;;5069242;28;20020;-81
2023/06/20 13:48:03;;;;;;;7.20;6.30;;;;;;;;;;5074230;28;20028;-79
2023/06/20 13:50:29;;;;;;;9.68;6.30;;;;;;;;;;5083964;28;20023;-77
2023/06/20 13:52:54;;;;;;;7.22;6.63;;;;;;;;;;5076968;28;20421;-79
2023/06/20 13:55:20;;;;;;;7.30;6.70;;;;;;;;;;5069157;28;20438;-79
2023/06/20 13:57:45;;;;;;;7.30;6.60;;;;;;;;;;5064087;28;20051;-81
2023/06/20 14:00:11;;;;;;;7.70;6.90;;;;;;;;;;5068678;28;20141;-79
2023/06/20 14:02:40;;;;;;;7.53;6.82;;;;;;;;;;5080287;28;20082;-81
2023/06/20 14:05:07;;;;;;;6.95;6.35;;;;;;;;;;5069430;28;20511;-81
2023/06/20 14:07:33;;;;;;;7.00;6.30;;;;;;;;;;5069145;28;20107;-82
2023/06/20 14:09:59;;;;;;;7.05;6.40;;;;;;;;;;5069980;28;20082;-79
2023/06/20 14:12:24;;;;;;;10.40;7.50;;;;;;;;;;5080631;28;20116;-78
2023/06/20 14:14:50;;;;;;;7.57;6.82;;;;;;;;;;5080620;28;20020;-81
2023/06/20 14:17:15;;;;;;;9.45;6.88;;;;;;;;;;5080790;28;20156;-79
2023/06/20 14:19:40;;;;;;;7.55;6.82;;;;;;;;;;5075615;28;20311;-81
2023/06/20 14:22:06;;;;;;;7.40;6.70;;;;;;;;;;5078887;28;20117;-82
2023/06/20 14:24:31;;;;;;;8.05;7.20;;;;;;;;;;5073935;28;20347;-78
2023/06/20 14:26:57;;;;;;;7.45;6.78;;;;;;;;;;5067299;28;21405;-78
2023/06/20 14:29:23;;;;;;;7.60;6.82;;;;;;;;;;5059712;28;20443;-80